sensor_id;sensor_type;location;lat;lon;timestamp;temperature;humidity
72338;DHT22;60294;64.134;-21.862;2022-12-19T00:00:50;-3266.00;62.20
72338;DHT22;60294;64.134;-21.862;2022-12-19T00:03:25;-3266.10;62.00
72338;DHT22;60294;64.134;-21.862;2022-12-19T00:05:51;-3266.10;61.90
72338;DHT22;60294;64.134;-21.862;2022-12-19T00:08:16;-3266.00;61.60
72338;DHT22;60294;64.134;-21.862;2022-12-19T00:10:43;-3266.10;62.10
72338;DHT22;60294;64.134;-21.862;2022-12-19T00:13:09;-3266.10;61.80
72338;DHT22;60294;64.134;-21.862;2022-12-19T00:15:35;-3266.00;61.70
72338;DHT22;60294;64.134;-21.862;2022-12-19T00:18:01;-3266.00;62.00
72338;DHT22;60294;64.134;-21.862;2022-12-19T00:20:27;-3266.00;61.90
72338;DHT22;60294;64.134;-21.862;2022-12-19T00:22:52;-3266.00;62.10
72338;DHT22;60294;64.134;-21.862;2022-12-19T00:25:21;-3266.00;62.20
72338;DHT22;60294;64.134;-21.862;2022-12-19T00:27:47;-3265.90;62.60
72338;DHT22;60294;64.134;-21.862;2022-12-19T00:30:13;-3265.90;63.00
72338;DHT22;60294;64.134;-21.862;2022-12-19T00:32:39;-3266.00;63.50
72338;DHT22;60294;64.134;-21.862;2022-12-19T00:35:05;-3265.90;63.20
72338;DHT22;60294;64.134;-21.862;2022-12-19T00:37:30;-3265.90;63.00
72338;DHT22;60294;64.134;-21.862;2022-12-19T00:39:56;-3265.70;63.10
72338;DHT22;60294;64.134;-21.862;2022-12-19T00:42:22;-3265.60;63.20
72338;DHT22;60294;64.134;-21.862;2022-12-19T00:44:48;-3265.50;63.40
72338;DHT22;60294;64.134;-21.862;2022-12-19T00:47:14;-3265.50;63.90
72338;DHT22;60294;64.134;-21.862;2022-12-19T00:49:39;-3265.50;64.00
72338;DHT22;60294;64.134;-21.862;2022-12-19T00:52:05;-3265.60;64.80
72338;DHT22;60294;64.134;-21.862;2022-12-19T00:54:31;-3266.10;70.70
72338;DHT22;60294;64.134;-21.862;2022-12-19T00:56:57;-3266.20;68.50
72338;DHT22;60294;64.134;-21.862;2022-12-19T00:59:22;-3266.40;68.60
72338;DHT22;60294;64.134;-21.862;2022-12-19T01:01:48;-3266.80;68.50
72338;DHT22;60294;64.134;-21.862;2022-12-19T01:04:14;-3266.90;68.90
72338;DHT22;60294;64.134;-21.862;2022-12-19T01:06:40;-3267.20;69.10
72338;DHT22;60294;64.134;-21.862;2022-12-19T01:09:06;-3267.40;68.70
72338;DHT22;60294;64.134;-21.862;2022-12-19T01:11:32;-3267.30;68.60
72338;DHT22;60294;64.134;-21.862;2022-12-19T01:14:16;-3267.40;68.70
72338;DHT22;60294;64.134;-21.862;2022-12-19T01:16:42;-3267.60;69.20
72338;DHT22;60294;64.134;-21.862;2022-12-19T01:19:07;-3267.70;68.30
72338;DHT22;60294;64.134;-21.862;2022-12-19T01:21:33;-3267.70;67.50
72338;DHT22;60294;64.134;-21.862;2022-12-19T01:24:00;-3267.70;67.70
72338;DHT22;60294;64.134;-21.862;2022-12-19T01:26:26;-3267.60;67.70
72338;DHT22;60294;64.134;-21.862;2022-12-19T01:28:52;-3267.70;67.60
72338;DHT22;60294;64.134;-21.862;2022-12-19T01:31:18;-3267.60;67.60
72338;DHT22;60294;64.134;-21.862;2022-12-19T01:33:44;-3267.70;68.40
72338;DHT22;60294;64.134;-21.862;2022-12-19T01:36:09;-3267.90;69.50
72338;DHT22;60294;64.134;-21.862;2022-12-19T01:38:36;-3268.00;70.10
72338;DHT22;60294;64.134;-21.862;2022-12-19T01:41:02;-3268.10;70.10
72338;DHT22;60294;64.134;-21.862;2022-12-19T01:43:31;-3268.30;69.50
72338;DHT22;60294;64.134;-21.862;2022-12-19T01:45:59;-3268.40;68.90
72338;DHT22;60294;64.134;-21.862;2022-12-19T01:48:32;-3268.40;68.20
72338;DHT22;60294;64.134;-21.862;2022-12-19T01:51:25;-3268.20;67.80
72338;DHT22;60294;64.134;-21.862;2022-12-19T01:53:56;-3268.20;68.00
72338;DHT22;60294;64.134;-21.862;2022-12-19T01:56:27;-3268.20;68.70
72338;DHT22;60294;64.134;-21.862;2022-12-19T01:58:55;-3268.20;68.30
72338;DHT22;60294;64.134;-21.862;2022-12-19T02:01:23;-3268.20;67.80
72338;DHT22;60294;64.134;-21.862;2022-12-19T02:03:50;-3268.20;67.30
72338;DHT22;60294;64.134;-21.862;2022-12-19T02:06:16;-3268.10;67.40
72338;DHT22;60294;64.134;-21.862;2022-12-19T02:08:44;-3268.20;67.40
72338;DHT22;60294;64.134;-21.862;2022-12-19T02:11:10;-3268.20;67.50
72338;DHT22;60294;64.134;-21.862;2022-12-19T02:13:36;-3268.30;68.40
72338;DHT22;60294;64.134;-21.862;2022-12-19T02:19:14;-3268.40;69.10
72338;DHT22;60294;64.134;-21.862;2022-12-19T02:24:19;-3268.80;69.60
72338;DHT22;60294;64.134;-21.862;2022-12-19T02:32:44;-3269.20;71.00
72338;DHT22;60294;64.134;-21.862;2022-12-19T02:35:32;-3269.20;68.60
72338;DHT22;60294;64.134;-21.862;2022-12-19T02:38:18;-3269.30;68.70
72338;DHT22;60294;64.134;-21.862;2022-12-19T02:40:54;-3269.50;67.30
72338;DHT22;60294;64.134;-21.862;2022-12-19T02:43:22;-3269.60;67.80
72338;DHT22;60294;64.134;-21.862;2022-12-19T02:45:49;-3269.60;66.90
72338;DHT22;60294;64.134;-21.862;2022-12-19T02:48:16;-3269.60;67.10
72338;DHT22;60294;64.134;-21.862;2022-12-19T02:50:44;-3269.70;66.80
72338;DHT22;60294;64.134;-21.862;2022-12-19T02:53:11;-3269.70;67.40
72338;DHT22;60294;64.134;-21.862;2022-12-19T03:01:23;-3269.70;68.50
72338;DHT22;60294;64.134;-21.862;2022-12-19T03:04:46;-3269.70;68.90
72338;DHT22;60294;64.134;-21.862;2022-12-19T03:12:29;-3269.80;69.40
72338;DHT22;60294;64.134;-21.862;2022-12-19T03:14:57;-3269.80;69.60
72338;DHT22;60294;64.134;-21.862;2022-12-19T03:17:24;-3269.80;69.90
72338;DHT22;60294;64.134;-21.862;2022-12-19T03:19:51;-3269.90;70.00
72338;DHT22;60294;64.134;-21.862;2022-12-19T03:22:17;-3269.90;69.70
72338;DHT22;60294;64.134;-21.862;2022-12-19T03:24:43;-3270.00;69.90
72338;DHT22;60294;64.134;-21.862;2022-12-19T03:27:16;-3270.00;70.00
72338;DHT22;60294;64.134;-21.862;2022-12-19T03:29:55;-3270.00;70.50
72338;DHT22;60294;64.134;-21.862;2022-12-19T03:32:26;-3270.10;70.20
72338;DHT22;60294;64.134;-21.862;2022-12-19T03:35:03;-3270.10;70.10
72338;DHT22;60294;64.134;-21.862;2022-12-19T03:37:32;-3270.00;70.40
72338;DHT22;60294;64.134;-21.862;2022-12-19T03:40:00;-3270.00;70.90
72338;DHT22;60294;64.134;-21.862;2022-12-19T03:42:29;-3270.00;70.80
72338;DHT22;60294;64.134;-21.862;2022-12-19T03:45:42;-3270.10;71.40
72338;DHT22;60294;64.134;-21.862;2022-12-19T03:48:09;-3270.20;70.50
72338;DHT22;60294;64.134;-21.862;2022-12-19T03:59:32;-3270.20;69.20
72338;DHT22;60294;64.134;-21.862;2022-12-19T04:01:59;-3270.20;69.20
72338;DHT22;60294;64.134;-21.862;2022-12-19T04:04:26;-3270.20;69.60
72338;DHT22;60294;64.134;-21.862;2022-12-19T04:06:53;-3270.20;69.90
72338;DHT22;60294;64.134;-21.862;2022-12-19T04:09:21;-3270.10;70.50
72338;DHT22;60294;64.134;-21.862;2022-12-19T04:12:10;-3270.10;70.60
72338;DHT22;60294;64.134;-21.862;2022-12-19T04:14:38;-3270.00;70.80
72338;DHT22;60294;64.134;-21.862;2022-12-19T04:17:25;-3270.00;70.90
72338;DHT22;60294;64.134;-21.862;2022-12-19T04:22:41;-3270.00;70.80
72338;DHT22;60294;64.134;-21.862;2022-12-19T04:25:14;-3270.00;70.50
72338;DHT22;60294;64.134;-21.862;2022-12-19T04:27:47;-3270.00;70.80
72338;DHT22;60294;64.134;-21.862;2022-12-19T04:30:17;-3270.00;70.50
72338;DHT22;60294;64.134;-21.862;2022-12-19T04:32:43;-3270.00;70.40
72338;DHT22;60294;64.134;-21.862;2022-12-19T04:35:10;-3270.10;70.30
72338;DHT22;60294;64.134;-21.862;2022-12-19T04:37:36;-3270.00;70.00
72338;DHT22;60294;64.134;-21.862;2022-12-19T04:40:03;-3270.00;70.30
72338;DHT22;60294;64.134;-21.862;2022-12-19T04:42:29;-3270.10;70.70
72338;DHT22;60294;64.134;-21.862;2022-12-19T04:44:54;-3270.10;70.60
72338;DHT22;60294;64.134;-21.862;2022-12-19T04:47:20;-3270.10;70.30
72338;DHT22;60294;64.134;-21.862;2022-12-19T04:49:46;-3270.10;70.50
72338;DHT22;60294;64.134;-21.862;2022-12-19T04:52:12;-3270.10;70.60
72338;DHT22;60294;64.134;-21.862;2022-12-19T04:54:38;-3270.10;70.80
72338;DHT22;60294;64.134;-21.862;2022-12-19T04:57:04;-3270.20;71.00
72338;DHT22;60294;64.134;-21.862;2022-12-19T04:59:29;-3270.20;70.60
72338;DHT22;60294;64.134;-21.862;2022-12-19T05:01:56;-3270.20;70.80
72338;DHT22;60294;64.134;-21.862;2022-12-19T05:04:22;-3270.30;70.80
72338;DHT22;60294;64.134;-21.862;2022-12-19T05:06:48;-3270.30;71.00
72338;DHT22;60294;64.134;-21.862;2022-12-19T05:09:13;-3270.30;71.10
72338;DHT22;60294;64.134;-21.862;2022-12-19T05:11:39;-3270.50;72.20
72338;DHT22;60294;64.134;-21.862;2022-12-19T05:14:05;-3270.60;72.00
72338;DHT22;60294;64.134;-21.862;2022-12-19T05:16:31;-3270.70;71.70
72338;DHT22;60294;64.134;-21.862;2022-12-19T05:18:57;-3270.70;71.90
72338;DHT22;60294;64.134;-21.862;2022-12-19T05:21:22;-3270.90;71.90
72338;DHT22;60294;64.134;-21.862;2022-12-19T05:23:49;-3271.00;71.60
72338;DHT22;60294;64.134;-21.862;2022-12-19T05:26:16;-3271.10;69.80
72338;DHT22;60294;64.134;-21.862;2022-12-19T05:28:41;-3271.10;70.00
72338;DHT22;60294;64.134;-21.862;2022-12-19T05:31:12;-3271.20;70.10
72338;DHT22;60294;64.134;-21.862;2022-12-19T05:33:39;-3271.20;69.80
72338;DHT22;60294;64.134;-21.862;2022-12-19T05:36:06;-3271.30;68.20
72338;DHT22;60294;64.134;-21.862;2022-12-19T05:38:33;-3271.20;67.40
72338;DHT22;60294;64.134;-21.862;2022-12-19T05:40:59;-3271.20;68.70
72338;DHT22;60294;64.134;-21.862;2022-12-19T05:43:25;-3271.30;69.50
72338;DHT22;60294;64.134;-21.862;2022-12-19T05:45:51;-3271.30;69.00
72338;DHT22;60294;64.134;-21.862;2022-12-19T05:48:17;-3271.40;68.60
72338;DHT22;60294;64.134;-21.862;2022-12-19T05:50:51;-3271.40;68.20
72338;DHT22;60294;64.134;-21.862;2022-12-19T05:53:17;-3271.30;68.90
72338;DHT22;60294;64.134;-21.862;2022-12-19T05:55:43;-3271.30;69.50
72338;DHT22;60294;64.134;-21.862;2022-12-19T05:58:09;-3271.30;69.10
72338;DHT22;60294;64.134;-21.862;2022-12-19T06:00:35;-3271.20;69.70
72338;DHT22;60294;64.134;-21.862;2022-12-19T06:03:01;-3271.20;69.50
72338;DHT22;60294;64.134;-21.862;2022-12-19T06:05:27;-3271.30;69.00
72338;DHT22;60294;64.134;-21.862;2022-12-19T06:07:53;-3271.40;69.30
72338;DHT22;60294;64.134;-21.862;2022-12-19T06:10:19;-3271.30;69.10
72338;DHT22;60294;64.134;-21.862;2022-12-19T06:12:45;-3271.20;68.30
72338;DHT22;60294;64.134;-21.862;2022-12-19T06:15:11;-3271.30;69.10
72338;DHT22;60294;64.134;-21.862;2022-12-19T06:17:36;-3271.40;69.50
72338;DHT22;60294;64.134;-21.862;2022-12-19T06:20:03;-3271.40;68.70
72338;DHT22;60294;64.134;-21.862;2022-12-19T06:22:28;-3271.40;68.10
72338;DHT22;60294;64.134;-21.862;2022-12-19T06:24:54;-3271.30;68.00
72338;DHT22;60294;64.134;-21.862;2022-12-19T06:27:20;-3271.40;67.40
72338;DHT22;60294;64.134;-21.862;2022-12-19T06:29:46;-3271.40;66.60
72338;DHT22;60294;64.134;-21.862;2022-12-19T06:32:12;-3271.40;66.00
72338;DHT22;60294;64.134;-21.862;2022-12-19T06:34:37;-3271.40;65.70
72338;DHT22;60294;64.134;-21.862;2022-12-19T06:37:03;-3271.40;65.80
72338;DHT22;60294;64.134;-21.862;2022-12-19T06:39:29;-3271.40;66.10
72338;DHT22;60294;64.134;-21.862;2022-12-19T06:41:55;-3271.40;66.30
72338;DHT22;60294;64.134;-21.862;2022-12-19T06:44:39;-3271.40;66.50
72338;DHT22;60294;64.134;-21.862;2022-12-19T06:47:05;-3271.30;66.60
72338;DHT22;60294;64.134;-21.862;2022-12-19T06:49:30;-3271.40;65.70
72338;DHT22;60294;64.134;-21.862;2022-12-19T06:51:56;-3271.40;65.00
72338;DHT22;60294;64.134;-21.862;2022-12-19T06:54:22;-3271.40;65.30
72338;DHT22;60294;64.134;-21.862;2022-12-19T06:56:48;-3271.40;66.60
72338;DHT22;60294;64.134;-21.862;2022-12-19T06:59:15;-3271.40;67.30
72338;DHT22;60294;64.134;-21.862;2022-12-19T07:04:08;-3271.40;65.90
72338;DHT22;60294;64.134;-21.862;2022-12-19T07:06:36;-3271.50;65.80
72338;DHT22;60294;64.134;-21.862;2022-12-19T07:09:02;-3271.50;65.90
72338;DHT22;60294;64.134;-21.862;2022-12-19T07:11:27;-3271.50;65.80
72338;DHT22;60294;64.134;-21.862;2022-12-19T07:13:53;-3271.60;66.10
72338;DHT22;60294;64.134;-21.862;2022-12-19T07:16:19;-3271.60;66.40
72338;DHT22;60294;64.134;-21.862;2022-12-19T07:18:45;-3271.60;65.80
72338;DHT22;60294;64.134;-21.862;2022-12-19T07:21:11;-3271.60;65.90
72338;DHT22;60294;64.134;-21.862;2022-12-19T07:23:37;-3271.60;66.40
72338;DHT22;60294;64.134;-21.862;2022-12-19T07:26:03;-3271.70;65.10
72338;DHT22;60294;64.134;-21.862;2022-12-19T07:28:29;-3271.70;65.60
72338;DHT22;60294;64.134;-21.862;2022-12-19T07:30:57;-3271.70;65.60
72338;DHT22;60294;64.134;-21.862;2022-12-19T07:33:23;-3271.70;65.40
72338;DHT22;60294;64.134;-21.862;2022-12-19T07:35:48;-3271.70;65.00
72338;DHT22;60294;64.134;-21.862;2022-12-19T07:38:14;-3271.70;65.70
72338;DHT22;60294;64.134;-21.862;2022-12-19T07:40:40;-3271.80;65.10
72338;DHT22;60294;64.134;-21.862;2022-12-19T07:43:06;-3271.80;65.20
72338;DHT22;60294;64.134;-21.862;2022-12-19T07:45:32;-3271.80;65.30
72338;DHT22;60294;64.134;-21.862;2022-12-19T07:48:00;-3271.80;65.40
72338;DHT22;60294;64.134;-21.862;2022-12-19T07:50:26;-3271.80;65.90
72338;DHT22;60294;64.134;-21.862;2022-12-19T07:52:52;-3271.80;66.60
72338;DHT22;60294;64.134;-21.862;2022-12-19T07:55:17;-3271.90;66.80
72338;DHT22;60294;64.134;-21.862;2022-12-19T07:57:43;-3271.90;65.80
72338;DHT22;60294;64.134;-21.862;2022-12-19T08:00:09;-3272.00;64.90
72338;DHT22;60294;64.134;-21.862;2022-12-19T08:02:35;-3272.00;65.20
72338;DHT22;60294;64.134;-21.862;2022-12-19T08:05:02;-3272.00;64.80
72338;DHT22;60294;64.134;-21.862;2022-12-19T08:07:28;-3272.00;64.90
72338;DHT22;60294;64.134;-21.862;2022-12-19T08:09:54;-3272.10;64.40
72338;DHT22;60294;64.134;-21.862;2022-12-19T08:12:20;-3272.00;64.80
72338;DHT22;60294;64.134;-21.862;2022-12-19T08:14:46;-3272.20;64.20
72338;DHT22;60294;64.134;-21.862;2022-12-19T08:17:13;-3272.20;64.20
72338;DHT22;60294;64.134;-21.862;2022-12-19T08:19:38;-3272.20;64.80
72338;DHT22;60294;64.134;-21.862;2022-12-19T08:22:04;-3272.20;65.30
72338;DHT22;60294;64.134;-21.862;2022-12-19T08:24:30;-3272.20;65.70
72338;DHT22;60294;64.134;-21.862;2022-12-19T08:26:56;-3272.20;65.50
72338;DHT22;60294;64.134;-21.862;2022-12-19T08:29:22;-3272.30;64.80
72338;DHT22;60294;64.134;-21.862;2022-12-19T08:31:48;-3272.20;64.60
72338;DHT22;60294;64.134;-21.862;2022-12-19T08:34:14;-3272.40;63.60
72338;DHT22;60294;64.134;-21.862;2022-12-19T08:36:40;-3272.30;64.20
72338;DHT22;60294;64.134;-21.862;2022-12-19T08:39:06;-3272.40;63.70
72338;DHT22;60294;64.134;-21.862;2022-12-19T08:41:32;-3272.40;63.50
72338;DHT22;60294;64.134;-21.862;2022-12-19T08:43:57;-3272.50;63.20
72338;DHT22;60294;64.134;-21.862;2022-12-19T08:46:23;-3272.40;63.80
72338;DHT22;60294;64.134;-21.862;2022-12-19T08:48:49;-3272.50;63.10
72338;DHT22;60294;64.134;-21.862;2022-12-19T08:51:16;-3272.50;63.10
72338;DHT22;60294;64.134;-21.862;2022-12-19T08:53:43;-3272.50;63.00
72338;DHT22;60294;64.134;-21.862;2022-12-19T08:56:16;-3272.50;63.40
72338;DHT22;60294;64.134;-21.862;2022-12-19T08:58:42;-3273.10;57.60
72338;DHT22;60294;64.134;-21.862;2022-12-19T09:01:11;-3273.00;60.10
72338;DHT22;60294;64.134;-21.862;2022-12-19T09:03:39;-3273.00;61.00
72338;DHT22;60294;64.134;-21.862;2022-12-19T09:06:07;-3273.00;62.00
72338;DHT22;60294;64.134;-21.862;2022-12-19T09:08:33;-3273.00;62.00
72338;DHT22;60294;64.134;-21.862;2022-12-19T09:11:12;-3273.00;61.40
72338;DHT22;60294;64.134;-21.862;2022-12-19T09:13:39;-3273.00;61.70
72338;DHT22;60294;64.134;-21.862;2022-12-19T09:16:26;-3273.10;60.70
72338;DHT22;60294;64.134;-21.862;2022-12-19T09:18:54;-3273.10;60.40
72338;DHT22;60294;64.134;-21.862;2022-12-19T09:21:22;-3273.00;62.00
72338;DHT22;60294;64.134;-21.862;2022-12-19T09:23:50;-3273.10;60.60
72338;DHT22;60294;64.134;-21.862;2022-12-19T09:26:17;-3273.10;60.50
72338;DHT22;60294;64.134;-21.862;2022-12-19T09:28:44;-3273.00;62.30
72338;DHT22;60294;64.134;-21.862;2022-12-19T09:31:13;-3272.90;63.30
72338;DHT22;60294;64.134;-21.862;2022-12-19T09:33:39;-3272.90;63.50
72338;DHT22;60294;64.134;-21.862;2022-12-19T09:36:05;-3272.90;63.50
72338;DHT22;60294;64.134;-21.862;2022-12-19T09:38:33;-3273.10;62.80
72338;DHT22;60294;64.134;-21.862;2022-12-19T09:46:53;-3272.90;62.20
72338;DHT22;60294;64.134;-21.862;2022-12-19T09:49:38;-3272.90;62.30
72338;DHT22;60294;64.134;-21.862;2022-12-19T10:00:31;-3272.90;63.50
72338;DHT22;60294;64.134;-21.862;2022-12-19T10:03:15;-3272.80;64.20
72338;DHT22;60294;64.134;-21.862;2022-12-19T10:05:48;-3272.90;64.10
72338;DHT22;60294;64.134;-21.862;2022-12-19T10:08:29;-3272.90;64.40
72338;DHT22;60294;64.134;-21.862;2022-12-19T10:16:20;-3272.80;65.00
72338;DHT22;60294;64.134;-21.862;2022-12-19T10:18:53;-3272.80;65.70
72338;DHT22;60294;64.134;-21.862;2022-12-19T10:26:59;-3272.80;64.90
72338;DHT22;60294;64.134;-21.862;2022-12-19T10:32:39;-3272.70;64.80
72338;DHT22;60294;64.134;-21.862;2022-12-19T10:35:34;-3272.60;64.90
72338;DHT22;60294;64.134;-21.862;2022-12-19T10:40:52;-3272.70;64.50
72338;DHT22;60294;64.134;-21.862;2022-12-19T10:43:41;-3272.70;64.40
72338;DHT22;60294;64.134;-21.862;2022-12-19T10:49:00;-3272.70;66.50
72338;DHT22;60294;64.134;-21.862;2022-12-19T10:51:28;-3272.70;66.60
72338;DHT22;60294;64.134;-21.862;2022-12-19T10:53:57;-3272.80;66.00
72338;DHT22;60294;64.134;-21.862;2022-12-19T10:56:27;-3272.80;65.50
72338;DHT22;60294;64.134;-21.862;2022-12-19T10:58:55;-3272.80;66.30
72338;DHT22;60294;64.134;-21.862;2022-12-19T11:01:34;-3272.80;65.50
72338;DHT22;60294;64.134;-21.862;2022-12-19T11:09:36;-3272.90;64.00
72338;DHT22;60294;64.134;-21.862;2022-12-19T11:14:42;-3272.70;64.80
72338;DHT22;60294;64.134;-21.862;2022-12-19T11:17:47;-3272.70;65.90
72338;DHT22;60294;64.134;-21.862;2022-12-19T11:20:21;-3272.70;66.20
72338;DHT22;60294;64.134;-21.862;2022-12-19T11:22:56;-3272.70;66.60
72338;DHT22;60294;64.134;-21.862;2022-12-19T11:25:37;-3272.70;65.90
72338;DHT22;60294;64.134;-21.862;2022-12-19T11:28:16;-3272.80;66.30
72338;DHT22;60294;64.134;-21.862;2022-12-19T11:30:42;-3272.80;66.60
72338;DHT22;60294;64.134;-21.862;2022-12-19T11:33:13;-3272.80;66.20
72338;DHT22;60294;64.134;-21.862;2022-12-19T11:35:54;-3272.80;66.30
72338;DHT22;60294;64.134;-21.862;2022-12-19T11:38:41;-3272.80;66.40
72338;DHT22;60294;64.134;-21.862;2022-12-19T11:46:51;-3272.70;65.30
72338;DHT22;60294;64.134;-21.862;2022-12-19T11:49:27;-3272.80;65.60
72338;DHT22;60294;64.134;-21.862;2022-12-19T11:54:59;-3272.90;65.60
72338;DHT22;60294;64.134;-21.862;2022-12-19T11:57:28;-3273.00;66.20
72338;DHT22;60294;64.134;-21.862;2022-12-19T11:59:54;-3273.00;65.10
72338;DHT22;60294;64.134;-21.862;2022-12-19T12:08:18;-3273.00;65.30
72338;DHT22;60294;64.134;-21.862;2022-12-19T12:11:00;-3272.90;64.70
72338;DHT22;60294;64.134;-21.862;2022-12-19T12:16:12;-3273.00;63.90
72338;DHT22;60294;64.134;-21.862;2022-12-19T12:19:18;-3273.00;64.50
72338;DHT22;60294;64.134;-21.862;2022-12-19T12:24:43;-3272.90;64.50
72338;DHT22;60294;64.134;-21.862;2022-12-19T12:30:21;-3272.90;64.60
72338;DHT22;60294;64.134;-21.862;2022-12-19T12:33:17;-3273.00;64.10
72338;DHT22;60294;64.134;-21.862;2022-12-19T12:35:50;-3273.00;64.60
72338;DHT22;60294;64.134;-21.862;2022-12-19T12:38:50;-3273.00;64.80
72338;DHT22;60294;64.134;-21.862;2022-12-19T12:41:38;-3273.10;65.50
72338;DHT22;60294;64.134;-21.862;2022-12-19T12:44:26;-3273.20;64.60
72338;DHT22;60294;64.134;-21.862;2022-12-19T12:47:03;-3273.30;64.30
72338;DHT22;60294;64.134;-21.862;2022-12-19T12:49:36;-3273.30;64.70
72338;DHT22;60294;64.134;-21.862;2022-12-19T12:52:10;-3273.30;64.80
72338;DHT22;60294;64.134;-21.862;2022-12-19T12:54:41;-3273.30;64.80
72338;DHT22;60294;64.134;-21.862;2022-12-19T13:02:41;-3273.40;64.40
72338;DHT22;60294;64.134;-21.862;2022-12-19T13:07:54;-3273.40;64.90
72338;DHT22;60294;64.134;-21.862;2022-12-19T13:10:25;-3273.40;64.70
72338;DHT22;60294;64.134;-21.862;2022-12-19T13:23:04;-3273.60;64.40
72338;DHT22;60294;64.134;-21.862;2022-12-19T13:28:36;-3273.70;64.10
72338;DHT22;60294;64.134;-21.862;2022-12-19T13:36:46;-3273.70;64.20
72338;DHT22;60294;64.134;-21.862;2022-12-19T13:39:32;-3273.90;62.40
72338;DHT22;60294;64.134;-21.862;2022-12-19T13:42:21;-3273.90;63.20
72338;DHT22;60294;64.134;-21.862;2022-12-19T13:47:42;-3274.00;63.60
72338;DHT22;60294;64.134;-21.862;2022-12-19T13:52:52;-3273.90;64.30
72338;DHT22;60294;64.134;-21.862;2022-12-19T13:55:18;-3273.90;65.00
72338;DHT22;60294;64.134;-21.862;2022-12-19T13:57:51;-3273.90;63.90
72338;DHT22;60294;64.134;-21.862;2022-12-19T14:00:20;-3273.80;65.10
72338;DHT22;60294;64.134;-21.862;2022-12-19T14:02:53;-3273.70;66.00
72338;DHT22;60294;64.134;-21.862;2022-12-19T14:05:37;-3273.70;66.60
72338;DHT22;60294;64.134;-21.862;2022-12-19T14:08:05;-3273.70;64.90
72338;DHT22;60294;64.134;-21.862;2022-12-19T14:10:35;-3273.80;65.40
72338;DHT22;60294;64.134;-21.862;2022-12-19T14:13:16;-3273.90;65.20
72338;DHT22;60294;64.134;-21.862;2022-12-19T14:16:02;-3273.90;64.50
72338;DHT22;60294;64.134;-21.862;2022-12-19T14:18:30;-3274.00;63.80
72338;DHT22;60294;64.134;-21.862;2022-12-19T14:21:17;-3274.00;64.50
72338;DHT22;60294;64.134;-21.862;2022-12-19T14:23:44;-3274.00;63.70
72338;DHT22;60294;64.134;-21.862;2022-12-19T14:26:30;-3274.00;63.90
72338;DHT22;60294;64.134;-21.862;2022-12-19T14:29:08;-3274.00;63.90
72338;DHT22;60294;64.134;-21.862;2022-12-19T14:31:38;-3274.00;64.30
72338;DHT22;60294;64.134;-21.862;2022-12-19T14:34:05;-3274.00;64.70
72338;DHT22;60294;64.134;-21.862;2022-12-19T14:36:34;-3274.00;65.40
72338;DHT22;60294;64.134;-21.862;2022-12-19T14:39:01;-3273.90;65.70
72338;DHT22;60294;64.134;-21.862;2022-12-19T14:44:15;-3273.90;66.40
72338;DHT22;60294;64.134;-21.862;2022-12-19T14:46:41;-3273.90;65.70
72338;DHT22;60294;64.134;-21.862;2022-12-19T14:49:25;-3273.90;64.80
72338;DHT22;60294;64.134;-21.862;2022-12-19T14:51:51;-3273.90;64.90
72338;DHT22;60294;64.134;-21.862;2022-12-19T14:54:20;-3273.90;64.90
72338;DHT22;60294;64.134;-21.862;2022-12-19T14:57:01;-3273.90;64.80
72338;DHT22;60294;64.134;-21.862;2022-12-19T14:59:37;-3273.90;64.50
72338;DHT22;60294;64.134;-21.862;2022-12-19T15:04:35;-3273.90;66.30
72338;DHT22;60294;64.134;-21.862;2022-12-19T15:07:12;-3273.90;66.10
72338;DHT22;60294;64.134;-21.862;2022-12-19T15:12:13;-3273.90;66.10
72338;DHT22;60294;64.134;-21.862;2022-12-19T15:17:52;-3273.90;65.80
72338;DHT22;60294;64.134;-21.862;2022-12-19T15:20:18;-3273.90;66.30
72338;DHT22;60294;64.134;-21.862;2022-12-19T15:22:45;-3273.90;67.10
72338;DHT22;60294;64.134;-21.862;2022-12-19T15:25:15;-3273.90;66.70
72338;DHT22;60294;64.134;-21.862;2022-12-19T15:27:43;-3273.80;66.50
72338;DHT22;60294;64.134;-21.862;2022-12-19T15:30:18;-3273.70;66.60
72338;DHT22;60294;64.134;-21.862;2022-12-19T15:32:45;-3273.60;66.90
72338;DHT22;60294;64.134;-21.862;2022-12-19T15:35:12;-3273.60;67.60
72338;DHT22;60294;64.134;-21.862;2022-12-19T15:37:38;-3273.70;68.60
72338;DHT22;60294;64.134;-21.862;2022-12-19T15:40:04;-3273.70;69.30
72338;DHT22;60294;64.134;-21.862;2022-12-19T15:42:31;-3273.80;69.20
72338;DHT22;60294;64.134;-21.862;2022-12-19T15:44:57;-3273.80;68.00
72338;DHT22;60294;64.134;-21.862;2022-12-19T15:47:30;-3273.80;68.90
72338;DHT22;60294;64.134;-21.862;2022-12-19T15:49:56;-3273.80;69.90
72338;DHT22;60294;64.134;-21.862;2022-12-19T15:52:26;-3273.70;69.50
72338;DHT22;60294;64.134;-21.862;2022-12-19T15:54:52;-3273.80;69.80
72338;DHT22;60294;64.134;-21.862;2022-12-19T15:57:28;-3273.80;69.10
72338;DHT22;60294;64.134;-21.862;2022-12-19T15:59:56;-3273.80;68.60
72338;DHT22;60294;64.134;-21.862;2022-12-19T16:02:24;-3273.80;69.10
72338;DHT22;60294;64.134;-21.862;2022-12-19T16:04:51;-3273.70;69.80
72338;DHT22;60294;64.134;-21.862;2022-12-19T16:07:20;-3273.70;70.00
72338;DHT22;60294;64.134;-21.862;2022-12-19T16:09:46;-3273.70;69.90
72338;DHT22;60294;64.134;-21.862;2022-12-19T16:12:15;-3273.60;69.80
72338;DHT22;60294;64.134;-21.862;2022-12-19T16:14:43;-3273.60;70.70
72338;DHT22;60294;64.134;-21.862;2022-12-19T16:17:15;-3273.60;71.00
72338;DHT22;60294;64.134;-21.862;2022-12-19T16:19:42;-3273.60;70.50
72338;DHT22;60294;64.134;-21.862;2022-12-19T16:24:45;-3273.70;70.50
72338;DHT22;60294;64.134;-21.862;2022-12-19T16:29:50;-3273.60;70.90
72338;DHT22;60294;64.134;-21.862;2022-12-19T16:32:17;-3273.70;70.50
72338;DHT22;60294;64.134;-21.862;2022-12-19T16:34:43;-3273.70;70.40
72338;DHT22;60294;64.134;-21.862;2022-12-19T16:37:09;-3273.80;69.00
72338;DHT22;60294;64.134;-21.862;2022-12-19T16:39:35;-3273.80;68.60
72338;DHT22;60294;64.134;-21.862;2022-12-19T16:42:08;-3273.70;68.00
72338;DHT22;60294;64.134;-21.862;2022-12-19T16:44:36;-3273.70;68.50
72338;DHT22;60294;64.134;-21.862;2022-12-19T16:47:02;-3273.70;68.50
72338;DHT22;60294;64.134;-21.862;2022-12-19T16:49:29;-3273.70;69.00
72338;DHT22;60294;64.134;-21.862;2022-12-19T16:51:55;-3273.70;69.20
72338;DHT22;60294;64.134;-21.862;2022-12-19T16:54:20;-3273.70;69.10
72338;DHT22;60294;64.134;-21.862;2022-12-19T16:56:48;-3273.70;69.00
72338;DHT22;60294;64.134;-21.862;2022-12-19T16:59:41;-3273.70;69.30
72338;DHT22;60294;64.134;-21.862;2022-12-19T17:04:48;-3273.70;69.50
72338;DHT22;60294;64.134;-21.862;2022-12-19T17:07:13;-3273.70;69.70
72338;DHT22;60294;64.134;-21.862;2022-12-19T17:09:39;-3273.70;69.80